createdAt,value
2019-01-04T00:00:31.616Z,99162.16
2019-01-04T00:01:03.213Z,99158.77
2019-01-04T00:01:34.805Z,99162.19
2019-01-04T00:02:06.394Z,99167.73
2019-01-04T00:02:37.990Z,99163.46
2019-01-04T00:03:09.581Z,99169.01
2019-01-04T00:03:41.193Z,99172.84
2019-01-04T00:04:12.794Z,99171.16
2019-01-04T00:04:44.430Z,99171.98
2019-01-04T00:05:16.057Z,99171.99
2019-01-04T00:05:47.698Z,99174.53
2019-01-04T00:06:20.012Z,99175.78
2019-01-04T00:06:51.596Z,99180.48
2019-01-04T00:07:23.205Z,99174.92
2019-01-04T00:07:54.853Z,99176.63
2019-01-04T00:08:26.554Z,99177.06
2019-01-04T00:08:58.222Z,99174.53
2019-01-04T00:09:29.763Z,99176.66
2019-01-04T00:10:01.385Z,99178.80
2019-01-04T00:10:32.973Z,99183.06
2019-01-04T00:11:04.557Z,99172.41
2019-01-04T00:11:36.171Z,99173.27
2019-01-04T00:12:07.777Z,99180.52
2019-01-04T00:12:39.388Z,99180.09
2019-01-04T00:13:10.995Z,99179.23
2019-01-04T00:13:42.595Z,99178.42
2019-01-04T00:14:14.204Z,99184.38
2019-01-04T00:14:45.812Z,99187.37
2019-01-04T00:15:17.428Z,99185.69
2019-01-04T00:15:49.022Z,99183.98
2019-01-04T00:16:20.628Z,99184.84
2019-01-04T00:16:52.223Z,99185.68
2019-01-04T00:17:23.833Z,99188.27
2019-01-04T00:17:55.429Z,99183.17
2019-01-04T00:18:27.012Z,99184.03
2019-01-04T00:18:58.620Z,99182.32
2019-01-04T00:19:30.227Z,99187.44
2019-01-04T00:20:01.836Z,99190.42
2019-01-04T00:20:33.429Z,99184.88
2019-01-04T00:21:05.021Z,99180.62
2019-01-04T00:21:36.629Z,99178.48
2019-01-04T00:22:08.212Z,99176.78
2019-01-04T00:22:39.824Z,99183.16
2019-01-04T00:23:11.436Z,99180.56
2019-01-04T00:23:43.033Z,99175.88
2019-01-04T00:24:14.636Z,99175.00
2019-01-04T00:24:46.237Z,99181.83
2019-01-04T00:25:17.858Z,99181.41
2019-01-04T00:25:49.441Z,99177.56
2019-01-04T00:26:21.047Z,99177.56
2019-01-04T00:26:52.760Z,99179.69
2019-01-04T00:27:24.368Z,99184.36
2019-01-04T00:27:55.977Z,99179.23
2019-01-04T00:28:27.569Z,99182.23
2019-01-04T00:28:59.157Z,99181.39
2019-01-04T00:29:30.764Z,99183.11
2019-01-04T00:30:02.380Z,99183.53
2019-01-04T00:30:34.009Z,99179.69
2019-01-04T00:31:05.611Z,99182.28
2019-01-04T00:31:37.196Z,99188.70
2019-01-04T00:32:08.808Z,99190.00
2019-01-04T00:32:40.526Z,99188.75
2019-01-04T00:33:12.125Z,99190.44
2019-01-04T00:33:43.704Z,99195.16
2019-01-04T00:34:15.312Z,99191.31
2019-01-04T00:34:46.914Z,99189.19
2019-01-04T00:35:18.548Z,99188.78
2019-01-04T00:35:50.141Z,99188.78
2019-01-04T00:36:21.733Z,99190.08
2019-01-04T00:36:53.331Z,99186.69
2019-01-04T00:37:24.928Z,99190.53
2019-01-04T00:37:56.537Z,99187.13
2019-01-04T00:38:28.130Z,99189.67
2019-01-04T00:38:59.742Z,99184.98
2019-01-04T00:39:31.342Z,99193.97
2019-01-04T00:40:02.947Z,99191.83
2019-01-04T00:40:34.580Z,99190.54
2019-01-04T00:41:06.156Z,99188.83
2019-01-04T00:41:37.755Z,99190.11
2019-01-04T00:42:09.364Z,99191.81
2019-01-04T00:42:40.964Z,99193.13
2019-01-04T00:43:12.564Z,99190.14
2019-01-04T00:43:44.158Z,99190.56
2019-01-04T00:44:15.756Z,99195.68
2019-01-04T00:44:47.354Z,99191.83
2019-01-04T00:45:19.011Z,99193.11
2019-01-04T00:45:50.609Z,99197.80
2019-01-04T00:46:22.205Z,99197.38
2019-01-04T00:46:53.794Z,99196.95
2019-01-04T00:47:25.393Z,99195.68
2019-01-04T00:47:56.976Z,99197.38
2019-01-04T00:48:28.574Z,99196.52
2019-01-04T00:49:00.164Z,99201.22
2019-01-04T00:49:31.767Z,99205.48
2019-01-04T00:50:03.376Z,99207.61
2019-01-04T00:50:34.993Z,99202.07
2019-01-04T00:51:06.590Z,99199.08
2019-01-04T00:51:38.185Z,99212.30
2019-01-04T00:52:09.764Z,99200.37
2019-01-04T00:52:41.386Z,99205.92
2019-01-04T00:53:12.997Z,99202.52
2019-01-04T00:53:44.593Z,99211.04
2019-01-04T00:54:16.175Z,99212.31
2019-01-04T00:54:47.827Z,99205.06
2019-01-04T00:55:19.417Z,99206.80
2019-01-04T00:55:51.044Z,99211.48
2019-01-04T00:56:22.628Z,99209.36
2019-01-04T00:56:54.236Z,99204.67
2019-01-04T00:57:25.859Z,99211.92
2019-01-04T00:57:57.454Z,99205.52
2019-01-04T00:58:29.046Z,99212.77
2019-01-04T00:59:00.639Z,99210.63
2019-01-04T00:59:32.248Z,99210.18
2019-01-04T01:00:03.856Z,99210.64
2019-01-04T01:00:35.647Z,99209.76
2019-01-04T01:01:07.252Z,99214.47
2019-01-04T01:01:38.860Z,99213.59
2019-01-04T01:02:10.453Z,99209.33
2019-01-04T01:02:42.058Z,99209.77
2019-01-04T01:03:13.677Z,99215.73
2019-01-04T01:03:45.270Z,99211.47
2019-01-04T01:04:16.877Z,99207.63
2019-01-04T01:04:48.486Z,99212.72
2019-01-04T01:05:20.087Z,99202.06
2019-01-04T01:05:51.682Z,99212.30
2019-01-04T01:06:23.287Z,99200.36
2019-01-04T01:06:54.896Z,99208.47
2019-01-04T01:07:26.504Z,99205.91
2019-01-04T01:07:58.102Z,99204.62
2019-01-04T01:08:29.702Z,99205.05
2019-01-04T01:09:01.312Z,99219.55
2019-01-04T01:09:32.906Z,99214.44
2019-01-04T01:10:04.508Z,99209.30
2019-01-04T01:10:36.102Z,99207.16
2019-01-04T01:11:07.721Z,99216.97
2019-01-04T01:11:39.314Z,99218.70
2019-01-04T01:12:10.911Z,99213.13
2019-01-04T01:12:42.505Z,99214.85
2019-01-04T01:13:14.126Z,99216.54
2019-01-04T01:13:45.725Z,99216.09
2019-01-04T01:14:17.318Z,99213.96
2019-01-04T01:14:48.924Z,99213.97
2019-01-04T01:15:20.531Z,99212.27
2019-01-04T01:15:52.152Z,99213.52
2019-01-04T01:16:23.745Z,99216.87
2019-01-04T01:16:55.352Z,99215.56
2019-01-04T01:17:26.966Z,99215.07
2019-01-04T01:17:58.557Z,99222.73
2019-01-04T01:18:30.150Z,99218.94
2019-01-04T01:19:01.735Z,99219.42
2019-01-04T01:19:33.320Z,99217.34
2019-01-04T01:20:04.914Z,99230.63
2019-01-04T01:20:36.515Z,99220.86
2019-01-04T01:21:08.351Z,99217.47
2019-01-04T01:21:39.953Z,99218.34
2019-01-04T01:22:11.532Z,99214.50
2019-01-04T01:22:43.142Z,99219.20
2019-01-04T01:23:14.737Z,99216.61
2019-01-04T01:23:46.330Z,99216.19
2019-01-04T01:24:17.924Z,99217.45
2019-01-04T01:24:49.551Z,99211.94
2019-01-04T01:25:21.145Z,99211.52
2019-01-04T01:25:52.751Z,99212.33
2019-01-04T01:26:24.408Z,99215.75
2019-01-04T01:26:56.003Z,99216.60
2019-01-04T01:27:27.611Z,99209.76
2019-01-04T01:27:59.205Z,99218.25
2019-01-04T01:28:30.812Z,99214.00
2019-01-04T01:29:02.405Z,99213.55
2019-01-04T01:29:34.007Z,99218.22
2019-01-04T01:30:05.611Z,99215.67
2019-01-04T01:30:37.220Z,99220.76
2019-01-04T01:31:08.823Z,99221.62
2019-01-04T01:31:40.448Z,99216.50
2019-01-04T01:32:12.037Z,99217.36
2019-01-04T01:32:43.640Z,99221.20
2019-01-04T01:33:15.243Z,99212.67
2019-01-04T01:33:46.819Z,99217.35
2019-01-04T01:34:18.408Z,99215.67
2019-01-04T01:34:50.005Z,99209.27
2019-01-04T01:35:21.597Z,99209.27
2019-01-04T01:35:53.193Z,99210.57
2019-01-04T01:36:24.781Z,99209.30
2019-01-04T01:36:56.415Z,99211.42
2019-01-04T01:37:28.019Z,99208.02
2019-01-04T01:37:59.617Z,99205.88
2019-01-04T01:38:31.206Z,99208.02
2019-01-04T01:39:02.846Z,99209.27
2019-01-04T01:39:34.441Z,99210.15
2019-01-04T01:40:06.047Z,99205.03
2019-01-04T01:40:37.653Z,99207.16
2019-01-04T01:41:09.256Z,99208.02
2019-01-04T01:41:40.854Z,99203.75
2019-01-04T01:42:12.765Z,99205.02
2019-01-04T01:42:44.357Z,99208.44
2019-01-04T01:43:15.960Z,99210.56
2019-01-04T01:43:47.554Z,99208.44
2019-01-04T01:44:19.152Z,99209.31
2019-01-04T01:44:50.760Z,99212.29
2019-01-04T01:45:22.367Z,99207.59
2019-01-04T01:45:53.976Z,99207.16
2019-01-04T01:46:25.573Z,99215.70
2019-01-04T01:46:57.165Z,99210.14
2019-01-04T01:47:28.799Z,99216.97
2019-01-04T01:48:00.408Z,99215.27
2019-01-04T01:48:32.022Z,99213.58
2019-01-04T01:49:03.627Z,99216.14
2019-01-04T01:49:35.228Z,99214.44
2019-01-04T01:50:06.822Z,99214.85
2019-01-04T01:50:38.428Z,99216.16
2019-01-04T01:51:10.025Z,99215.73
2019-01-04T01:51:41.632Z,99214.88
2019-01-04T01:52:13.231Z,99213.17
2019-01-04T01:52:44.854Z,99214.45
2019-01-04T01:53:16.439Z,99216.58
2019-01-04T01:53:48.048Z,99215.73
2019-01-04T01:54:19.643Z,99216.16
2019-01-04T01:54:51.241Z,99208.48
2019-01-04T01:55:22.833Z,99216.58
2019-01-04T01:55:54.444Z,99212.75
2019-01-04T01:56:26.044Z,99212.75
2019-01-04T01:56:57.623Z,99217.86
2019-01-04T01:57:29.249Z,99217.00
2019-01-04T01:58:00.842Z,99208.51
2019-01-04T01:58:32.448Z,99211.45
2019-01-04T01:59:04.032Z,99212.34
2019-01-04T01:59:35.627Z,99211.91
2019-01-04T02:00:07.224Z,99208.07
2019-01-04T02:00:38.828Z,99208.07
2019-01-04T02:01:10.473Z,99216.63
2019-01-04T02:01:42.076Z,99207.67
2019-01-04T02:02:13.671Z,99212.34
2019-01-04T02:02:45.295Z,99216.59
2019-01-04T02:03:16.890Z,99212.79
2019-01-04T02:03:48.487Z,99212.78
2019-01-04T02:04:20.077Z,99215.34
2019-01-04T02:04:51.688Z,99216.20
2019-01-04T02:05:23.281Z,99218.33
2019-01-04T02:05:55.368Z,99215.34
2019-01-04T02:06:26.980Z,99214.91
2019-01-04T02:06:58.577Z,99221.28
2019-01-04T02:07:30.184Z,99223.45
2019-01-04T02:08:01.782Z,99209.81
2019-01-04T02:08:33.364Z,99216.61
2019-01-04T02:09:07.486Z,99209.39
2019-01-04T02:09:36.620Z,99211.50
2019-01-04T02:10:08.232Z,99217.06
2019-01-04T02:10:39.825Z,99212.80
2019-01-04T02:11:11.418Z,99213.63
2019-01-04T02:11:43.018Z,99214.91
2019-01-04T02:12:14.632Z,99208.54
2019-01-04T02:12:46.585Z,99208.97
2019-01-04T02:13:18.187Z,99208.11
2019-01-04T02:13:49.777Z,99211.09
2019-01-04T02:14:21.375Z,99209.39
2019-01-04T02:14:52.969Z,99209.81
2019-01-04T02:15:24.576Z,99212.80
2019-01-04T02:15:56.169Z,99211.09
2019-01-04T02:16:27.779Z,99211.92
2019-01-04T02:16:59.383Z,99208.95
2019-01-04T02:17:30.981Z,99209.81
2019-01-04T02:18:02.786Z,99212.78
2019-01-04T02:18:34.372Z,99201.70
2019-01-04T02:19:05.951Z,99202.55
2019-01-04T02:19:37.529Z,99207.23
2019-01-04T02:20:09.123Z,99204.70
2019-01-04T02:20:40.721Z,99201.27
2019-01-04T02:21:12.375Z,99199.56
2019-01-04T02:21:43.972Z,99201.27
2019-01-04T02:22:15.575Z,99199.11
2019-01-04T02:22:47.175Z,99199.55
2019-01-04T02:23:18.812Z,99194.44
2019-01-04T02:23:50.405Z,99200.81
2019-01-04T02:24:21.998Z,99203.80
2019-01-04T02:24:53.599Z,99196.11
2019-01-04T02:25:25.213Z,99207.23
2019-01-04T02:25:56.854Z,99204.66
2019-01-04T02:26:28.468Z,99207.67
2019-01-04T02:27:00.061Z,99208.52
2019-01-04T02:27:31.663Z,99206.38
2019-01-04T02:28:03.257Z,99210.22
2019-01-04T02:28:34.892Z,99207.66
2019-01-04T02:29:06.486Z,99204.68
2019-01-04T02:29:38.079Z,99205.53
2019-01-04T02:30:09.675Z,99199.59
2019-01-04T02:30:41.275Z,99205.56
2019-01-04T02:31:12.875Z,99205.11
2019-01-04T02:31:44.459Z,99204.25
2019-01-04T02:32:16.049Z,99207.66
2019-01-04T02:32:47.644Z,99206.41
2019-01-04T02:33:19.286Z,99208.97
2019-01-04T02:33:50.868Z,99213.22
2019-01-04T02:34:22.452Z,99208.11
2019-01-04T02:34:54.049Z,99208.53
2019-01-04T02:35:25.643Z,99207.70
2019-01-04T02:35:57.241Z,99202.98
2019-01-04T02:36:28.838Z,99211.12
2019-01-04T02:37:00.431Z,99205.14
2019-01-04T02:37:32.040Z,99208.98
2019-01-04T02:38:03.633Z,99207.70
2019-01-04T02:38:35.254Z,99200.47
2019-01-04T02:39:06.835Z,99203.44
2019-01-04T02:39:38.426Z,99201.75
2019-01-04T02:40:10.022Z,99200.45
2019-01-04T02:40:41.816Z,99201.31
2019-01-04T02:41:13.411Z,99202.16
2019-01-04T02:41:45.024Z,99199.60
2019-01-04T02:42:16.627Z,99197.05
2019-01-04T02:42:48.222Z,99185.59
2019-01-04T02:43:19.953Z,99201.31
2019-01-04T02:43:51.550Z,99200.89
2019-01-04T02:44:23.146Z,99205.97
2019-01-04T02:44:54.745Z,99196.59
2019-01-04T02:45:26.347Z,99198.33
2019-01-04T02:45:57.944Z,99197.88
2019-01-04T02:46:29.529Z,99197.03
2019-01-04T02:47:01.136Z,99196.17
2019-01-04T02:47:32.733Z,99198.73
2019-01-04T02:48:04.344Z,99198.31
2019-01-04T02:48:35.965Z,99202.14
2019-01-04T02:49:07.574Z,99188.08
2019-01-04T02:49:39.172Z,99195.33
2019-01-04T02:50:10.773Z,99201.70
2019-01-04T02:50:42.371Z,99192.74
2019-01-04T02:51:14.020Z,99194.88
2019-01-04T02:51:45.618Z,99193.16
2019-01-04T02:52:17.219Z,99197.00
2019-01-04T02:52:48.814Z,99193.61
2019-01-04T02:53:20.397Z,99197.03
2019-01-04T02:53:52.019Z,99195.33
2019-01-04T02:54:23.613Z,99194.90
2019-01-04T02:54:55.215Z,99192.34
2019-01-04T02:55:26.824Z,99194.47
2019-01-04T02:55:58.419Z,99194.89
2019-01-04T02:56:30.027Z,99197.88
2019-01-04T02:57:01.632Z,99194.47
2019-01-04T02:57:33.228Z,99196.16
2019-01-04T02:58:04.831Z,99194.45
2019-01-04T02:58:36.453Z,99188.48
2019-01-04T02:59:08.057Z,99190.16
2019-01-04T02:59:39.643Z,99188.06
2019-01-04T03:00:11.224Z,99181.66
2019-01-04T03:00:42.818Z,99187.20
2019-01-04T03:01:14.413Z,99184.24
2019-01-04T03:01:46.007Z,99190.63
2019-01-04T03:02:17.587Z,99181.67
2019-01-04T03:02:49.178Z,99189.80
2019-01-04T03:03:20.785Z,99187.23
2019-01-04T03:03:52.469Z,99187.23
2019-01-04T03:04:24.065Z,99187.23
2019-01-04T03:04:55.668Z,99184.26
2019-01-04T03:05:27.293Z,99191.94
2019-01-04T03:05:58.880Z,99193.61
2019-01-04T03:06:30.492Z,99185.52
2019-01-04T03:07:02.141Z,99194.47
2019-01-04T03:07:33.742Z,99192.77
2019-01-04T03:08:05.333Z,99187.22
2019-01-04T03:08:36.953Z,99184.24
2019-01-04T03:09:08.560Z,99193.61
2019-01-04T03:09:40.148Z,99196.17
2019-01-04T03:10:11.739Z,99185.52
2019-01-04T03:10:43.338Z,99188.92
2019-01-04T03:11:14.930Z,99191.94
2019-01-04T03:11:46.533Z,99185.98
2019-01-04T03:12:18.144Z,99189.38
2019-01-04T03:12:49.741Z,99187.66
2019-01-04T03:13:21.343Z,99182.97
2019-01-04T03:13:52.986Z,99191.09
2019-01-04T03:14:24.597Z,99185.97
2019-01-04T03:14:56.190Z,99186.83
2019-01-04T03:15:27.887Z,99183.41
2019-01-04T03:15:59.482Z,99183.02
2019-01-04T03:16:31.092Z,99182.16
2019-01-04T03:17:02.746Z,99178.77
2019-01-04T03:17:34.351Z,99178.77
2019-01-04T03:18:05.941Z,99176.23
2019-01-04T03:18:37.535Z,99177.08
2019-01-04T03:19:09.154Z,99177.52
2019-01-04T03:19:40.755Z,99176.69
2019-01-04T03:20:12.389Z,99176.70
2019-01-04T03:20:43.972Z,99179.27
2019-01-04T03:21:15.567Z,99174.57
2019-01-04T03:21:47.158Z,99178.44
2019-01-04T03:22:18.750Z,99172.48
2019-01-04T03:22:50.354Z,99174.18
2019-01-04T03:23:21.948Z,99166.53
2019-01-04T03:23:53.556Z,99169.94
2019-01-04T03:24:25.255Z,99175.08
2019-01-04T03:24:56.819Z,99172.94
2019-01-04T03:25:28.421Z,99172.51
2019-01-04T03:26:00.014Z,99173.78
2019-01-04T03:26:31.625Z,99172.95
2019-01-04T03:27:03.236Z,99172.06
2019-01-04T03:27:34.831Z,99171.22
2019-01-04T03:28:06.425Z,99177.17
2019-01-04T03:28:38.035Z,99174.62
2019-01-04T03:29:09.652Z,99180.16
2019-01-04T03:29:41.245Z,99172.50
2019-01-04T03:30:12.841Z,99172.92
2019-01-04T03:30:44.519Z,99172.92
2019-01-04T03:31:16.129Z,99137.70
2019-01-04T03:31:47.726Z,99173.35
2019-01-04T03:32:19.337Z,99168.24
2019-01-04T03:32:50.922Z,99163.97
2019-01-04T03:33:22.505Z,99169.52
2019-01-04T03:33:54.101Z,99165.25
2019-01-04T03:34:25.717Z,99172.91
2019-01-04T03:34:57.310Z,99168.22
2019-01-04T03:35:28.909Z,99168.64
2019-01-04T03:36:00.484Z,99174.19
2019-01-04T03:36:32.092Z,99167.75
2019-01-04T03:37:03.689Z,99163.88
2019-01-04T03:37:35.311Z,99164.73
2019-01-04T03:38:06.906Z,99169.06
2019-01-04T03:38:38.511Z,99170.81
2019-01-04T03:39:10.111Z,99171.67
2019-01-04T03:39:41.743Z,99167.88
2019-01-04T03:40:13.352Z,99168.76
2019-01-04T03:40:44.945Z,99177.70
2019-01-04T03:41:16.528Z,99173.47
2019-01-04T03:41:48.117Z,99181.61
2019-01-04T03:42:19.710Z,99181.16
2019-01-04T03:42:51.312Z,99173.05
2019-01-04T03:43:22.909Z,99178.55
2019-01-04T03:43:54.502Z,99178.08
2019-01-04T03:44:26.126Z,99173.34
2019-01-04T03:44:57.723Z,99176.70
2019-01-04T03:45:29.327Z,99177.58
2019-01-04T03:46:00.917Z,99174.18
2019-01-04T03:46:32.509Z,99176.78
2019-01-04T03:47:04.116Z,99178.06
2019-01-04T03:47:35.714Z,99173.39
2019-01-04T03:48:07.302Z,99165.77
2019-01-04T03:48:38.894Z,99171.72
2019-01-04T03:49:10.500Z,99164.52
2019-01-04T03:49:42.106Z,99167.09
2019-01-04T03:50:13.698Z,99164.05
2019-01-04T03:50:45.311Z,99167.43
2019-01-04T03:51:16.923Z,99164.38
2019-01-04T03:51:48.518Z,99166.88
2019-01-04T03:52:20.133Z,99166.39
2019-01-04T03:52:51.736Z,99166.75
2019-01-04T03:53:23.379Z,99164.53
2019-01-04T03:53:54.985Z,99169.21
2019-01-04T03:54:26.602Z,99174.31
2019-01-04T03:54:58.575Z,99170.42
2019-01-04T03:55:30.166Z,99170.05
2019-01-04T03:56:01.763Z,99165.38
2019-01-04T03:56:33.362Z,99161.20
2019-01-04T03:57:04.964Z,99160.84
2019-01-04T03:57:36.548Z,99160.89
2019-01-04T03:58:08.128Z,99163.48
2019-01-04T03:58:39.728Z,99160.08
2019-01-04T03:59:11.339Z,99156.72
2019-01-04T03:59:42.933Z,99152.47
2019-01-04T04:00:14.678Z,99149.51
2019-01-04T04:00:46.284Z,99147.82
2019-01-04T04:01:17.900Z,99153.36
2019-01-04T04:01:49.494Z,99152.09
2019-01-04T04:02:21.084Z,99148.69
2019-01-04T04:02:52.673Z,99148.27
2019-01-04T04:03:24.266Z,99146.95
2019-01-04T04:03:55.868Z,99150.39
2019-01-04T04:04:27.477Z,99149.11
2019-01-04T04:04:59.051Z,99152.09
2019-01-04T04:05:30.777Z,99152.54
2019-01-04T04:06:02.387Z,99145.72
2019-01-04T04:06:33.982Z,99143.59
2019-01-04T04:07:05.577Z,99141.45
2019-01-04T04:07:37.179Z,99149.13
2019-01-04T04:08:08.773Z,99126.64
2019-01-04T04:08:40.365Z,99140.20
2019-01-04T04:09:11.959Z,99139.34
2019-01-04T04:09:43.568Z,99137.22
2019-01-04T04:10:15.162Z,99136.78
2019-01-04T04:10:46.781Z,99132.95
2019-01-04T04:11:18.369Z,99139.77
2019-01-04T04:11:49.962Z,99135.95
2019-01-04T04:12:21.557Z,99135.95
2019-01-04T04:12:53.153Z,99130.84
2019-01-04T04:13:24.747Z,99130.84
2019-01-04T04:13:56.342Z,99138.08
2019-01-04T04:14:27.947Z,99134.67
2019-01-04T04:14:59.557Z,99133.82
2019-01-04T04:15:31.163Z,99134.68
2019-01-04T04:16:02.782Z,99134.67
2019-01-04T04:16:34.390Z,99133.39
2019-01-04T04:17:05.994Z,99132.54
2019-01-04T04:17:37.612Z,99132.55
2019-01-04T04:18:09.209Z,99125.73
2019-01-04T04:18:40.798Z,99136.38
2019-01-04T04:19:12.390Z,99130.00
2019-01-04T04:19:43.995Z,99135.10
2019-01-04T04:20:15.584Z,99125.30
2019-01-04T04:20:47.188Z,99093.03
2019-01-04T04:21:18.800Z,99125.33
2019-01-04T04:21:50.501Z,99130.44
2019-01-04T04:22:22.094Z,99129.58
2019-01-04T04:22:53.691Z,99119.78
2019-01-04T04:23:25.305Z,99129.16
2019-01-04T04:23:56.897Z,99132.11
2019-01-04T04:24:28.504Z,99129.55
2019-01-04T04:25:00.265Z,99126.17
2019-01-04T04:25:31.756Z,99132.14
2019-01-04T04:26:03.350Z,99126.59
2019-01-04T04:26:34.956Z,99132.14
2019-01-04T04:27:06.550Z,99123.22
2019-01-04T04:27:38.158Z,99134.27
2019-01-04T04:28:09.768Z,99126.59
2019-01-04T04:28:41.367Z,99131.28
2019-01-04T04:29:12.967Z,99129.15
2019-01-04T04:29:44.564Z,99124.92
2019-01-04T04:30:16.158Z,99128.74
2019-01-04T04:30:47.753Z,99127.03
2019-01-04T04:31:19.359Z,99125.76
2019-01-04T04:31:51.016Z,99126.19
2019-01-04T04:32:22.615Z,99124.05
2019-01-04T04:32:54.225Z,99127.89
2019-01-04T04:33:25.821Z,99122.35
2019-01-04T04:33:57.432Z,99123.66
2019-01-04T04:34:29.025Z,99127.46
2019-01-04T04:35:00.615Z,99122.78
2019-01-04T04:35:32.209Z,99122.78
2019-01-04T04:36:03.800Z,99127.89
2019-01-04T04:36:35.417Z,99126.61
2019-01-04T04:37:07.040Z,99127.03
2019-01-04T04:37:38.633Z,99129.16
2019-01-04T04:38:10.234Z,99124.93
2019-01-04T04:38:41.826Z,99131.74
2019-01-04T04:39:13.436Z,99130.89
2019-01-04T04:39:45.045Z,99133.86
2019-01-04T04:40:17.031Z,99134.72
2019-01-04T04:40:48.628Z,99130.03
2019-01-04T04:41:20.226Z,99133.44
2019-01-04T04:41:52.021Z,99137.28
2019-01-04T04:42:23.628Z,99139.41
2019-01-04T04:42:55.223Z,99136.85
2019-01-04T04:43:26.827Z,99136.42
2019-01-04T04:43:58.421Z,99142.81
2019-01-04T04:44:30.010Z,99144.08
2019-01-04T04:45:01.622Z,99144.97
2019-01-04T04:45:33.219Z,99141.96
2019-01-04T04:46:04.817Z,99148.34
2019-01-04T04:46:36.414Z,99148.34
2019-01-04T04:47:08.063Z,99147.10
2019-01-04T04:47:39.678Z,99145.83
2019-01-04T04:48:11.289Z,99143.24
2019-01-04T04:48:42.885Z,99148.28
2019-01-04T04:49:14.492Z,99137.19
2019-01-04T04:49:46.076Z,99143.52
2019-01-04T04:50:17.670Z,99149.84
2019-01-04T04:50:49.297Z,99142.59
2019-01-04T04:51:20.894Z,99142.97
2019-01-04T04:51:52.501Z,99142.55
2019-01-04T04:52:24.112Z,99150.20
2019-01-04T04:52:55.706Z,99144.66
2019-01-04T04:53:27.311Z,99150.60
2019-01-04T04:53:58.900Z,99145.92
2019-01-04T04:54:30.498Z,99145.04
2019-01-04T04:55:02.090Z,99136.94
2019-01-04T04:55:33.701Z,99122.94
2019-01-04T04:56:05.298Z,99141.19
2019-01-04T04:56:36.891Z,99142.44
2019-01-04T04:57:08.495Z,99141.59
2019-01-04T04:57:40.128Z,99134.78
2019-01-04T04:58:11.752Z,99134.75
2019-01-04T04:58:43.347Z,99137.73
2019-01-04T04:59:14.952Z,99141.14
2019-01-04T04:59:46.546Z,99137.73
2019-01-04T05:00:18.132Z,99140.72
2019-01-04T05:00:49.740Z,99140.30
2019-01-04T05:01:21.333Z,99138.59
2019-01-04T05:01:52.935Z,99142.00
2019-01-04T05:02:24.558Z,99143.25
2019-01-04T05:02:56.164Z,99145.81
2019-01-04T05:03:27.748Z,99141.13
2019-01-04T05:03:59.329Z,99133.91
2019-01-04T05:04:30.934Z,99140.72
2019-01-04T05:05:02.530Z,99141.57
2019-01-04T05:05:34.113Z,99133.91
2019-01-04T05:06:05.710Z,99137.33
2019-01-04T05:06:37.321Z,99140.73
2019-01-04T05:07:08.932Z,99135.64
2019-01-04T05:07:40.573Z,99132.70
2019-01-04T05:08:12.179Z,99131.87
2019-01-04T05:08:43.790Z,99130.19
2019-01-04T05:09:15.421Z,99135.30
2019-01-04T05:09:47.008Z,99134.48
2019-01-04T05:10:18.617Z,99130.22
2019-01-04T05:10:50.200Z,99132.37
2019-01-04T05:11:21.818Z,99128.56
2019-01-04T05:11:53.536Z,99126.85
2019-01-04T05:12:25.172Z,99132.41
2019-01-04T05:12:56.779Z,99090.37
2019-01-04T05:13:28.370Z,99129.02
2019-01-04T05:13:59.961Z,99129.47
2019-01-04T05:14:31.555Z,99129.89
2019-01-04T05:15:03.153Z,99126.48
2019-01-04T05:15:34.742Z,99127.33
2019-01-04T05:16:06.352Z,99124.80
2019-01-04T05:16:37.947Z,99123.97
2019-01-04T05:17:09.556Z,99119.69
2019-01-04T05:17:41.192Z,99120.14
2019-01-04T05:18:12.785Z,99112.94
2019-01-04T05:18:44.386Z,99117.17
2019-01-04T05:19:15.985Z,99112.94
2019-01-04T05:19:47.573Z,99121.05
2019-01-04T05:20:19.179Z,99112.13
2019-01-04T05:20:50.784Z,99118.94
2019-01-04T05:21:22.397Z,99103.22
2019-01-04T05:21:53.993Z,99107.86
2019-01-04T05:22:25.586Z,99109.97
2019-01-04T05:22:57.824Z,99110.84
2019-01-04T05:23:29.432Z,99117.20
2019-01-04T05:24:01.053Z,99113.81
2019-01-04T05:24:32.672Z,99114.25
2019-01-04T05:25:04.278Z,99115.95
2019-01-04T05:25:35.881Z,99121.06
2019-01-04T05:26:07.535Z,99123.19
2019-01-04T05:26:39.117Z,99118.91
2019-01-04T05:27:10.713Z,99113.38
2019-01-04T05:27:42.335Z,99124.46
2019-01-04T05:28:13.920Z,99113.38
2019-01-04T05:28:45.523Z,99121.05
2019-01-04T05:29:17.134Z,99118.91
2019-01-04T05:29:48.729Z,99121.91
2019-01-04T05:30:20.312Z,99115.92
2019-01-04T05:30:51.906Z,99122.75
2019-01-04T05:31:23.520Z,99122.30
2019-01-04T05:31:55.127Z,99115.48
2019-01-04T05:32:26.722Z,99114.62
2019-01-04T05:32:58.341Z,99111.21
2019-01-04T05:33:29.945Z,99106.08
2019-01-04T05:34:01.558Z,99110.34
2019-01-04T05:34:33.149Z,99101.83
2019-01-04T05:35:04.754Z,99100.55
2019-01-04T05:35:36.349Z,99092.48
2019-01-04T05:36:07.941Z,99099.25
2019-01-04T05:36:39.543Z,99106.47
2019-01-04T05:37:11.137Z,99094.98
2019-01-04T05:37:42.730Z,99097.52
2019-01-04T05:38:14.421Z,99094.55
2019-01-04T05:38:46.018Z,99096.65
2019-01-04T05:39:17.608Z,99103.89
2019-01-04T05:39:49.220Z,99106.45
2019-01-04T05:40:21.173Z,99106.89
2019-01-04T05:40:52.755Z,99107.31
2019-01-04T05:41:24.345Z,99104.30
2019-01-04T05:41:55.941Z,99100.05
2019-01-04T05:42:27.543Z,99104.27
2019-01-04T05:42:59.147Z,99103.39
2019-01-04T05:43:30.785Z,99107.23
2019-01-04T05:44:02.447Z,99105.51
2019-01-04T05:44:34.026Z,99112.73
2019-01-04T05:45:05.621Z,99111.45
2019-01-04T05:45:37.228Z,99106.77
2019-01-04T05:46:08.826Z,99103.78
2019-01-04T05:46:40.428Z,99101.23
2019-01-04T05:47:12.040Z,99102.51
2019-01-04T05:47:43.651Z,99098.22
2019-01-04T05:48:15.245Z,99099.95
2019-01-04T05:48:46.863Z,99107.19
2019-01-04T05:49:18.473Z,99105.47
2019-01-04T05:49:50.088Z,99101.63
2019-01-04T05:50:21.720Z,99099.08
2019-01-04T05:50:53.512Z,99096.91
2019-01-04T05:51:25.117Z,99093.94
2019-01-04T05:51:56.709Z,99101.59
2019-01-04T05:52:28.301Z,99096.48
2019-01-04T05:52:59.909Z,99101.16
2019-01-04T05:53:31.516Z,99106.27
2019-01-04T05:54:03.160Z,99101.61
2019-01-04T05:54:34.754Z,99108.42
2019-01-04T05:55:06.346Z,99105.45
2019-01-04T05:55:37.968Z,99108.83
2019-01-04T05:56:09.566Z,99110.14
2019-01-04T05:56:41.180Z,99110.95
2019-01-04T05:57:12.788Z,99110.95
2019-01-04T05:57:44.398Z,99113.52
2019-01-04T05:58:16.003Z,99112.27
2019-01-04T05:58:47.607Z,99109.28
2019-01-04T05:59:19.233Z,99110.13
2019-01-04T05:59:50.826Z,99105.48
2019-01-04T06:00:22.496Z,99113.98
2019-01-04T06:00:54.108Z,99114.84
2019-01-04T06:01:25.701Z,99113.12
2019-01-04T06:01:57.295Z,99114.02
2019-01-04T06:02:28.890Z,99114.86
2019-01-04T06:03:00.485Z,99115.69
2019-01-04T06:03:32.088Z,99115.69
2019-01-04T06:04:03.696Z,99111.00
2019-01-04T06:04:35.299Z,99117.39
2019-01-04T06:05:06.907Z,99109.73
2019-01-04T06:05:38.502Z,99111.41
2019-01-04T06:06:10.112Z,99119.94
2019-01-04T06:06:41.719Z,99114.80
2019-01-04T06:07:13.313Z,99114.38
2019-01-04T06:07:44.896Z,99113.94
2019-01-04T06:08:16.491Z,99115.20
2019-01-04T06:08:48.086Z,99117.78
2019-01-04T06:09:19.673Z,99116.48
2019-01-04T06:09:51.303Z,99119.03
2019-01-04T06:10:22.911Z,99118.61
2019-01-04T06:10:54.518Z,99121.59
2019-01-04T06:11:26.124Z,99122.48